createdAt,value
2022-10-21T00:01:58.222Z,100735.31
2022-10-21T00:04:25.883Z,100738.03
2022-10-21T00:06:54.893Z,100730.72
2022-10-21T00:09:22.565Z,100730.16
2022-10-21T00:11:50.238Z,100728.28
2022-10-21T00:14:17.907Z,100732.06
2022-10-21T00:16:45.548Z,100738.28
2022-10-21T00:19:13.306Z,100728.53
2022-10-21T00:21:42.332Z,100728.53
2022-10-21T00:24:11.443Z,100721.22
2022-10-21T00:26:39.074Z,100716.06
2022-10-21T00:29:06.714Z,100715.81
2022-10-21T00:31:34.879Z,100719.59
2022-10-21T00:34:02.532Z,100725.81
2022-10-21T00:36:31.833Z,100722.28
2022-10-21T00:38:59.475Z,100724.19
2022-10-21T00:41:29.253Z,100721.47
2022-10-21T00:44:00.201Z,100722.28
2022-10-21T00:46:35.035Z,100727.72
2022-10-21T00:49:07.054Z,100716.06
2022-10-21T00:51:34.919Z,100722.28
2022-10-21T00:54:03.749Z,100716.88
2022-10-21T00:56:35.750Z,100710.66
2022-10-21T00:59:05.789Z,100710.66
2022-10-21T01:01:34.624Z,100716.88
2022-10-21T01:04:03.819Z,100699.84
2022-10-21T01:06:32.931Z,100691.97
2022-10-21T01:09:01.553Z,100696.31
2022-10-21T01:11:31.314Z,100699.00
2022-10-21T01:14:37.356Z,100697.13
2022-10-21T01:17:20.940Z,100688.44
2022-10-21T01:20:21.668Z,100674.09
2022-10-21T01:23:07.267Z,100672.22
2022-10-21T01:25:54.788Z,100672.22
2022-10-21T01:28:36.181Z,100663.28
2022-10-21T01:31:11.172Z,100665.97
2022-10-21T01:33:46.459Z,100660.81
2022-10-21T01:36:27.471Z,100652.69
2022-10-21T01:39:06.602Z,100654.59
2022-10-21T01:41:41.100Z,100647.53
2022-10-21T01:44:16.937Z,100641.31
2022-10-21T01:46:49.904Z,100632.63
2022-10-21T01:49:21.999Z,100620.44
2022-10-21T01:51:49.975Z,100630.75
2022-10-21T01:54:23.753Z,100628.03
2022-10-21T01:56:52.457Z,100617.47
2022-10-21T01:59:22.014Z,100619.38
2022-10-21T02:01:52.939Z,100626.66
2022-10-21T02:04:21.874Z,100631.25
2022-10-21T02:06:49.783Z,100626.91
2022-10-21T02:09:17.489Z,100618.81
2022-10-21T02:11:48.086Z,100617.16
2022-10-21T02:14:20.716Z,100596.84
2022-10-21T02:16:49.536Z,100598.22
2022-10-21T02:19:20.757Z,100599.28
2022-10-21T02:21:53.012Z,100602.81
2022-10-21T02:24:27.301Z,100609.03
2022-10-21T02:26:55.346Z,100608.50
2022-10-21T02:29:27.834Z,100608.50
2022-10-21T02:32:14.158Z,100610.38
2022-10-21T02:34:56.603Z,100610.38
2022-10-21T02:37:32.510Z,100612.25
2022-10-21T02:40:06.335Z,100602.25
2022-10-21T02:42:37.687Z,100604.16
2022-10-21T02:45:06.636Z,100597.91
2022-10-21T02:47:37.537Z,100592.50
2022-10-21T02:50:07.862Z,100591.69
2022-10-21T02:52:35.515Z,100597.09
2022-10-21T02:55:03.171Z,100596.28
2022-10-21T02:57:30.805Z,100595.47
2022-10-21T02:59:58.447Z,100587.59
2022-10-21T03:02:26.114Z,100594.91
2022-10-21T03:04:53.821Z,100587.59
2022-10-21T03:07:22.824Z,100595.97
2022-10-21T03:09:50.461Z,100595.97
2022-10-21T03:12:18.141Z,100590.81
2022-10-21T03:14:45.792Z,100596.25
2022-10-21T03:17:13.435Z,100592.72
2022-10-21T03:19:41.089Z,100591.91
2022-10-21T03:22:08.710Z,100594.59
2022-10-21T03:24:37.691Z,100599.44
2022-10-21T03:27:05.500Z,100602.97
2022-10-21T03:29:33.121Z,100604.03
2022-10-21T03:32:00.742Z,100599.72
2022-10-21T03:34:28.385Z,100591.59
2022-10-21T03:36:56.035Z,100595.13
2022-10-21T03:39:23.729Z,100587.25
2022-10-21T03:41:52.734Z,100589.16
2022-10-21T03:44:20.403Z,100586.44
2022-10-21T03:46:48.079Z,100588.59
2022-10-21T03:49:21.155Z,100581.53
2022-10-21T03:51:49.802Z,100585.88
2022-10-21T03:54:17.827Z,100573.41
2022-10-21T03:56:46.020Z,100566.38
2022-10-21T03:59:15.255Z,100570.16
2022-10-21T04:01:43.012Z,100574.75
2022-10-21T04:04:10.677Z,100572.03
2022-10-21T04:06:38.338Z,100572.03
2022-10-21T04:09:06.087Z,100575.00
2022-10-21T04:11:33.779Z,100583.13
2022-10-21T04:14:01.470Z,100582.06
2022-10-21T04:16:30.546Z,100575.00
2022-10-21T04:18:58.177Z,100578.53
2022-10-21T04:21:25.896Z,100577.72
2022-10-21T04:23:53.515Z,100581.47
2022-10-21T04:26:21.190Z,100588.78
2022-10-21T04:28:48.911Z,100585.25
2022-10-21T04:31:16.535Z,100586.09
2022-10-21T04:33:45.557Z,100590.66
2022-10-21T04:36:13.474Z,100596.09
2022-10-21T04:38:41.159Z,100591.75
2022-10-21T04:41:08.786Z,100590.09
2022-10-21T04:43:38.016Z,100594.41
2022-10-21T04:46:07.623Z,100597.41
2022-10-21T04:48:37.636Z,100593.88
2022-10-21T04:51:07.430Z,100593.06
2022-10-21T04:53:35.336Z,100586.84
2022-10-21T04:56:03.014Z,100579.81
2022-10-21T04:58:30.680Z,100590.63
2022-10-21T05:00:58.358Z,100588.97
2022-10-21T05:03:26.143Z,100586.28
2022-10-21T05:05:53.910Z,100581.94
2022-10-21T05:08:23.354Z,100581.38
2022-10-21T05:10:51.031Z,100577.84
2022-10-21T05:13:18.716Z,100575.16
2022-10-21T05:15:46.353Z,100566.22
2022-10-21T05:18:13.993Z,100566.22
2022-10-21T05:20:42.367Z,100565.41
2022-10-21T05:23:10.086Z,100559.44
2022-10-21T05:25:39.081Z,100562.13
2022-10-21T05:28:06.701Z,100562.41
2022-10-21T05:30:34.376Z,100562.13
2022-10-21T05:33:02.103Z,100551.31
2022-10-21T05:35:29.864Z,100542.66
2022-10-21T05:37:57.576Z,100547.00
2022-10-21T05:40:25.347Z,100543.72
2022-10-21T05:42:54.398Z,100541.84
2022-10-21T05:45:22.135Z,100537.50
2022-10-21T05:47:49.778Z,100538.56
2022-10-21T05:50:17.745Z,100540.47
2022-10-21T05:52:45.426Z,100541.28
2022-10-21T05:55:13.250Z,100536.94
2022-10-21T05:57:41.022Z,100533.66
2022-10-21T06:00:11.882Z,100538.00
2022-10-21T06:02:39.876Z,100538.00
2022-10-21T06:05:08.505Z,100542.59
2022-10-21T06:07:36.544Z,100535.31
2022-10-21T06:10:05.071Z,100533.66
2022-10-21T06:12:32.902Z,100532.00
2022-10-21T06:15:00.591Z,100526.59
2022-10-21T06:17:29.602Z,100535.78
2022-10-21T06:19:57.327Z,100527.13
2022-10-21T06:22:24.995Z,100529.56
2022-10-21T06:24:52.682Z,100530.63
2022-10-21T06:27:20.438Z,100542.50
2022-10-21T06:29:48.309Z,100539.00
2022-10-21T06:32:15.990Z,100539.00
2022-10-21T06:34:44.977Z,100550.88
2022-10-21T06:37:12.684Z,100545.47
2022-10-21T06:39:40.287Z,100564.41
2022-10-21T06:42:07.887Z,100557.34
2022-10-21T06:44:35.577Z,100546.78
2022-10-21T06:47:03.230Z,100554.91
2022-10-21T06:49:31.351Z,100562.19
2022-10-21T06:52:00.659Z,100559.50
2022-10-21T06:54:28.615Z,100565.16
2022-10-21T06:56:56.247Z,100572.44
2022-10-21T06:59:23.883Z,100577.84
2022-10-21T07:02:06.898Z,100592.19
2022-10-21T07:04:34.647Z,100591.38
2022-10-21T07:07:03.697Z,100603.25
2022-10-21T07:09:31.672Z,100611.13
2022-10-21T07:12:01.379Z,100603.25
2022-10-21T07:14:29.293Z,100610.28
2022-10-21T07:16:56.954Z,100603.25
2022-10-21T07:19:24.632Z,100608.66
2022-10-21T07:21:52.364Z,100606.78
2022-10-21T07:24:22.696Z,100606.78
2022-10-21T07:26:51.004Z,100599.47
2022-10-21T07:29:19.071Z,100598.09
2022-10-21T07:31:46.806Z,100601.38
2022-10-21T07:34:14.483Z,100601.38
2022-10-21T07:36:44.987Z,100603.50
2022-10-21T07:39:15.741Z,100611.94
2022-10-21T07:41:47.264Z,100617.59
2022-10-21T07:44:15.463Z,100611.94
2022-10-21T07:46:45.413Z,100621.94
2022-10-21T07:49:14.011Z,100616.53
2022-10-21T07:51:42.114Z,100621.94
2022-10-21T07:54:10.070Z,100618.97
2022-10-21T07:56:41.301Z,100626.25
2022-10-21T07:59:13.118Z,100622.50
2022-10-21T08:01:44.336Z,100623.31
2022-10-21T08:04:13.941Z,100619.78
2022-10-21T08:06:41.778Z,100612.50
2022-10-21T08:09:09.579Z,100623.31
2022-10-21T08:11:37.287Z,100617.91
2022-10-21T08:14:06.660Z,100613.31
2022-10-21T08:16:36.030Z,100626.84
2022-10-21T08:19:05.642Z,100626.84
2022-10-21T08:21:33.678Z,100628.47
2022-10-21T08:24:03.552Z,100629.53
2022-10-21T08:26:31.233Z,100633.88
2022-10-21T08:31:33.159Z,100640.34
2022-10-21T08:34:02.188Z,100653.88
2022-10-21T08:36:29.981Z,100647.63
2022-10-21T08:38:59.399Z,100654.69
2022-10-21T08:42:03.159Z,100647.63
2022-10-21T08:44:38.011Z,100651.97
2022-10-21T08:47:12.817Z,100645.50
2022-10-21T08:49:52.627Z,100641.06
2022-10-21T08:52:23.794Z,100635.84
2022-10-21T08:54:57.903Z,100643.84
2022-10-21T08:57:25.661Z,100659.19
2022-10-21T08:59:53.896Z,100647.69
2022-10-21T09:02:33.525Z,100641.34
2022-10-21T09:05:20.397Z,100658.28
2022-10-21T09:07:56.042Z,100652.41
2022-10-21T09:10:39.326Z,100654.91
2022-10-21T09:13:14.803Z,100649.69
2022-10-21T09:15:53.539Z,100652.31
2022-10-21T09:18:34.054Z,100662.22
2022-10-21T09:21:10.531Z,100653.75
2022-10-21T09:23:59.733Z,100668.56
2022-10-21T09:26:42.354Z,100673.94
2022-10-21T09:29:25.140Z,100663.88
2022-10-21T09:31:57.255Z,100669.00
2022-10-21T09:34:38.489Z,100664.09
2022-10-21T09:37:13.572Z,100665.41
2022-10-21T09:39:45.921Z,100661.59
2022-10-21T09:42:35.241Z,100668.06
2022-10-21T09:45:02.153Z,100665.06
2022-10-21T09:47:29.892Z,100671.84
2022-10-21T09:50:07.295Z,100665.72
2022-10-21T09:52:38.312Z,100662.91
2022-10-21T09:55:07.132Z,100661.94
2022-10-21T09:57:45.752Z,100675.75
2022-10-21T10:00:14.352Z,100672.25
2022-10-21T10:02:45.117Z,100675.72
2022-10-21T10:05:38.247Z,100672.97
2022-10-21T10:08:30.188Z,100671.28
2022-10-21T10:11:11.735Z,100677.22
2022-10-21T10:13:42.230Z,100670.69
2022-10-21T10:16:22.288Z,100672.00
2022-10-21T10:18:51.974Z,100682.00
2022-10-21T10:21:20.819Z,100687.69
2022-10-21T10:23:52.644Z,100681.69
2022-10-21T10:26:28.524Z,100686.03
2022-10-21T10:28:59.126Z,100677.94
2022-10-21T10:31:32.567Z,100677.66
2022-10-21T10:34:04.933Z,100669.81
2022-10-21T10:36:37.362Z,100677.66
2022-10-21T10:39:09.766Z,100673.06
2022-10-21T10:41:40.241Z,100680.94
2022-10-21T10:44:19.523Z,100675.53
2022-10-21T10:46:54.386Z,100670.13
2022-10-21T10:49:22.969Z,100669.03
2022-10-21T10:52:08.110Z,100666.34
2022-10-21T10:54:37.883Z,100667.16
2022-10-21T10:57:11.066Z,100667.97
2022-10-21T10:59:43.270Z,100660.41
2022-10-21T11:02:35.032Z,100660.16
2022-10-21T11:05:17.766Z,100657.44
2022-10-21T11:07:48.546Z,100653.41
2022-10-21T11:10:29.519Z,100655.38
2022-10-21T11:12:57.672Z,100643.75
2022-10-21T11:15:32.532Z,100649.75
2022-10-21T11:18:23.195Z,100644.00
2022-10-21T11:21:00.842Z,100643.19
2022-10-21T11:24:08.732Z,100644.22
2022-10-21T11:26:45.408Z,100633.91
2022-10-21T11:29:19.929Z,100641.22
2022-10-21T11:32:10.816Z,100642.53
2022-10-21T11:34:49.436Z,100642.81
2022-10-21T11:37:25.914Z,100651.75
2022-10-21T11:39:59.838Z,100658.78
2022-10-21T11:42:35.799Z,100665.03
2022-10-21T11:45:25.657Z,100670.44
2022-10-21T11:48:00.009Z,100629.84
2022-10-21T11:50:35.338Z,100665.19
2022-10-21T11:53:17.863Z,100655.50
2022-10-21T11:55:52.972Z,100649.00
2022-10-21T11:58:30.970Z,100650.94
2022-10-21T12:01:11.137Z,100642.22
2022-10-21T12:03:58.443Z,100647.38
2022-10-21T12:06:34.211Z,100645.22
2022-10-21T12:09:07.367Z,100650.41
2022-10-21T12:11:39.899Z,100657.72
2022-10-21T12:14:31.063Z,100633.91
2022-10-21T12:17:03.036Z,100633.94
2022-10-21T12:19:31.255Z,100637.44
2022-10-21T12:21:59.515Z,100645.03
2022-10-21T12:24:40.974Z,100649.88
2022-10-21T12:27:17.552Z,100658.31
2022-10-21T12:29:57.262Z,100653.97
2022-10-21T12:32:32.683Z,100643.13
2022-10-21T12:35:01.860Z,100643.94
2022-10-21T12:38:08.689Z,100649.63
2022-10-21T12:40:39.954Z,100640.94
2022-10-21T12:43:19.769Z,100647.28
2022-10-21T12:46:02.228Z,100640.84
2022-10-21T12:48:36.277Z,100645.47
2022-10-21T12:51:07.755Z,100644.63
2022-10-21T12:53:39.930Z,100646.78
2022-10-21T12:56:09.956Z,100650.31
2022-10-21T12:58:42.329Z,100644.34
2022-10-21T13:01:40.787Z,100642.69
2022-10-21T13:04:42.093Z,100650.56
2022-10-21T13:07:35.971Z,100650.03
2022-10-21T13:10:17.459Z,100642.19
2022-10-21T13:12:47.519Z,100643.53
2022-10-21T13:15:46.626Z,100652.50
2022-10-21T13:18:54.293Z,100661.19
2022-10-21T13:21:36.435Z,100655.78
2022-10-21T13:24:20.294Z,100655.28
2022-10-21T13:26:50.792Z,100649.63
2022-10-21T13:29:48.007Z,100655.84
2022-10-21T13:32:28.229Z,100658.84
2022-10-21T13:35:19.251Z,100652.91
2022-10-21T13:37:55.397Z,100654.56
2022-10-21T13:40:26.898Z,100646.44
2022-10-21T13:42:59.024Z,100645.09
2022-10-21T13:45:30.599Z,100645.41
2022-10-21T13:48:07.334Z,100638.59
2022-10-21T13:50:40.690Z,100646.75
2022-10-21T13:53:30.312Z,100644.31
2022-10-21T13:56:00.654Z,100652.78
2022-10-21T13:58:30.211Z,100643.00
2022-10-21T14:00:59.115Z,100649.47
2022-10-21T14:03:28.053Z,100639.44
2022-10-21T14:06:00.129Z,100643.53
2022-10-21T14:08:31.818Z,100652.72
2022-10-21T14:11:03.202Z,100638.88
2022-10-21T14:13:35.944Z,100647.28
2022-10-21T14:16:05.136Z,100644.81
2022-10-21T14:18:37.242Z,100645.38
2022-10-21T14:21:09.645Z,100645.41
2022-10-21T14:23:37.438Z,100656.50
2022-10-21T14:26:08.321Z,100652.44
2022-10-21T14:28:37.842Z,100655.16
2022-10-21T14:31:11.592Z,100654.94
2022-10-21T14:33:43.291Z,100654.63
2022-10-21T14:36:16.120Z,100660.88
2022-10-21T14:38:52.881Z,100659.81
2022-10-21T14:41:25.444Z,100660.88
2022-10-21T14:43:55.332Z,100666.88
2022-10-21T14:46:23.248Z,100669.63
2022-10-21T14:48:54.809Z,100656.31
2022-10-21T14:51:24.278Z,100663.09
2022-10-21T14:53:55.908Z,100666.09
2022-10-21T14:56:29.310Z,100664.44
2022-10-21T14:58:59.228Z,100666.09
2022-10-21T15:01:27.917Z,100663.91
2022-10-21T15:03:57.224Z,100661.75
2022-10-21T15:06:28.150Z,100655.75
2022-10-21T15:09:02.120Z,100651.41
2022-10-21T15:11:39.319Z,100654.94
2022-10-21T15:14:18.711Z,100646.50
2022-10-21T15:16:49.484Z,100653.31
2022-10-21T15:19:19.839Z,100644.59
2022-10-21T15:21:51.871Z,100653.59
2022-10-21T15:24:22.772Z,100657.66
2022-10-21T15:26:53.546Z,100642.47
2022-10-21T15:29:27.878Z,100640.56
2022-10-21T15:31:58.250Z,100631.06
2022-10-21T15:34:26.324Z,100644.38
2022-10-21T15:36:55.383Z,100643.81
2022-10-21T15:39:23.360Z,100640.28
2022-10-21T15:41:54.965Z,100641.38
2022-10-21T15:44:25.920Z,100651.41
2022-10-21T15:47:00.426Z,100647.88
2022-10-21T15:49:32.118Z,100647.88
2022-10-21T15:52:01.770Z,100647.88
2022-10-21T15:54:29.500Z,100645.72
2022-10-21T15:56:59.430Z,100654.69
2022-10-21T15:59:29.510Z,100650.34
2022-10-21T16:01:57.951Z,100650.59
2022-10-21T16:04:25.985Z,100648.97
2022-10-21T16:06:54.723Z,100652.72
2022-10-21T16:09:25.752Z,100652.19
2022-10-21T16:12:00.364Z,100658.44
2022-10-21T16:14:30.147Z,100662.22
2022-10-21T16:16:59.241Z,100644.81
2022-10-21T16:19:27.346Z,100665.19
2022-10-21T16:21:55.057Z,100657.88
2022-10-21T16:24:24.082Z,100666.84
2022-10-21T16:26:51.735Z,100662.22
2022-10-21T16:29:21.746Z,100658.69
2022-10-21T16:31:49.672Z,100663.56
2022-10-21T16:34:17.680Z,100667.91
2022-10-21T16:36:45.384Z,100672.53
2022-10-21T16:39:15.560Z,100676.88
2022-10-21T16:41:44.613Z,100677.13
2022-10-21T16:44:12.305Z,100679.59
2022-10-21T16:46:42.580Z,100679.84
2022-10-21T16:49:13.741Z,100679.84
2022-10-21T16:51:42.956Z,100683.38
2022-10-21T16:54:11.244Z,100689.63
2022-10-21T16:56:38.924Z,100686.09
2022-10-21T16:59:08.097Z,100695.06
2022-10-21T17:01:35.810Z,100691.53
2022-10-21T17:04:03.642Z,100697.75
2022-10-21T17:06:31.937Z,100697.75
2022-10-21T17:08:59.714Z,100699.66
2022-10-21T17:11:32.987Z,100704.28
2022-10-21T17:14:00.823Z,100710.50
2022-10-21T17:16:29.886Z,100709.69
2022-10-21T17:18:57.726Z,100709.97
2022-10-21T17:21:27.125Z,100715.38
2022-10-21T17:23:55.830Z,100712.69
2022-10-21T17:26:23.653Z,100720.00
2022-10-21T17:28:51.804Z,100723.25
2022-10-21T17:31:21.953Z,100719.72
2022-10-21T17:33:52.702Z,100726.25
2022-10-21T17:36:21.716Z,100722.72
2022-10-21T17:38:49.403Z,100724.59
2022-10-21T17:41:20.318Z,100732.75
2022-10-21T17:43:48.271Z,100734.13
2022-10-21T17:46:19.534Z,100735.75
2022-10-21T17:48:51.887Z,100737.66
2022-10-21T17:51:22.215Z,100738.72
2022-10-21T17:53:50.233Z,100740.63
2022-10-21T17:56:18.705Z,100744.41
2022-10-21T17:58:46.719Z,100743.88
2022-10-21T18:01:15.088Z,100749.28
2022-10-21T18:03:42.849Z,100743.88
2022-10-21T18:06:12.988Z,100743.31
2022-10-21T18:08:40.705Z,100740.84
2022-10-21T18:11:10.250Z,100752.53
2022-10-21T18:13:38.140Z,100755.25
2022-10-21T18:16:07.767Z,100763.13
2022-10-21T18:18:36.622Z,100769.09
2022-10-21T18:21:05.925Z,100766.13
2022-10-21T18:23:35.187Z,100767.19
2022-10-21T18:26:04.016Z,100762.59
2022-10-21T18:28:32.410Z,100769.66
2022-10-21T18:31:00.326Z,100776.16
2022-10-21T18:33:28.398Z,100769.91
2022-10-21T18:35:56.108Z,100771.00
2022-10-21T18:38:24.038Z,100771.78
2022-10-21T18:41:02.193Z,100791.06
2022-10-21T18:43:40.793Z,100779.41
2022-10-21T18:46:08.522Z,100781.28
2022-10-21T18:48:36.970Z,100786.72
2022-10-21T18:51:08.209Z,100783.19
2022-10-21T18:53:37.070Z,100782.63
2022-10-21T18:56:08.607Z,100788.88
2022-10-21T18:58:37.657Z,100781.00
2022-10-21T19:01:06.172Z,100775.84
2022-10-21T19:03:33.815Z,100778.56
2022-10-21T19:06:16.533Z,100772.31
2022-10-21T19:08:44.344Z,100770.41
2022-10-21T19:11:13.508Z,100768.78
2022-10-21T19:13:41.183Z,100779.06
2022-10-21T19:16:11.748Z,100771.19
2022-10-21T19:18:39.413Z,100773.09
2022-10-21T19:21:07.626Z,100770.38
2022-10-21T19:23:35.637Z,100771.47
2022-10-21T19:26:04.083Z,100764.41
2022-10-21T19:28:33.713Z,100765.47
2022-10-21T19:31:01.534Z,100775.50
2022-10-21T19:33:30.491Z,100774.69
2022-10-21T19:36:00.194Z,100772.25
2022-10-21T19:38:43.176Z,100773.31
2022-10-21T19:41:13.721Z,100768.16
2022-10-21T19:43:42.747Z,100771.13
2022-10-21T19:46:15.454Z,100764.34
2022-10-21T19:48:43.178Z,100768.69
2022-10-21T19:51:15.175Z,100778.72
2022-10-21T19:53:44.969Z,100779.78
2022-10-21T19:56:13.879Z,100770.84
2022-10-21T19:58:46.325Z,100785.47
2022-10-21T20:01:16.452Z,100779.25
2022-10-21T20:03:45.949Z,100786.00
2022-10-21T20:06:15.549Z,100780.56
2022-10-21T20:08:43.762Z,100782.47
2022-10-21T20:11:13.995Z,100778.13
2022-10-21T20:13:44.246Z,100777.56
2022-10-21T20:16:16.047Z,100780.28
2022-10-21T20:18:43.694Z,100781.34
2022-10-21T20:21:11.461Z,100781.88
2022-10-21T20:23:39.148Z,100786.22
2022-10-21T20:26:08.818Z,100785.41
2022-10-21T20:28:36.854Z,100800.03
2022-10-21T20:31:07.428Z,100787.31
2022-10-21T20:33:37.583Z,100807.38
2022-10-21T20:36:05.547Z,100802.19
2022-10-21T20:38:33.925Z,100816.56
2022-10-21T20:41:05.915Z,100816.84
2022-10-21T20:43:34.815Z,100816.84
2022-10-21T20:46:02.972Z,100820.63
2022-10-21T20:48:33.052Z,100819.81
2022-10-21T20:51:04.972Z,100817.09
2022-10-21T20:53:32.869Z,100821.69
2022-10-21T20:56:00.903Z,100824.94
2022-10-21T20:58:28.651Z,100823.56
2022-10-21T21:00:56.587Z,100824.09
2022-10-21T21:03:24.355Z,100822.47
2022-10-21T21:05:53.433Z,100827.06
2022-10-21T21:08:21.135Z,100828.97
2022-10-21T21:10:48.784Z,100828.97
2022-10-21T21:13:16.475Z,100832.75
2022-10-21T21:15:44.175Z,100831.13
2022-10-21T21:18:14.052Z,100839.25
2022-10-21T21:20:41.663Z,100833.00
2022-10-21T21:23:10.687Z,100833.28
2022-10-21T21:25:38.363Z,100826.22
2022-10-21T21:28:06.050Z,100830.81
2022-10-21T21:30:33.719Z,100822.38
2022-10-21T21:33:01.384Z,100827.56
2022-10-21T21:35:29.497Z,100833.22
2022-10-21T21:37:57.117Z,100829.69
2022-10-21T21:40:26.168Z,100833.50
2022-10-21T21:42:53.832Z,100829.97
2022-10-21T21:45:21.502Z,100828.31
2022-10-21T21:47:49.162Z,100825.06
2022-10-21T21:50:16.828Z,100830.47
2022-10-21T21:52:44.890Z,100828.84
2022-10-21T21:55:12.714Z,100828.03
2022-10-21T21:57:41.719Z,100831.81
2022-10-21T22:00:10.848Z,100832.88
2022-10-21T22:02:38.906Z,100828.53
2022-10-21T22:05:07.605Z,100825.81
2022-10-21T22:07:35.242Z,100818.22
2022-10-21T22:10:02.924Z,100823.38
2022-10-21T22:12:30.658Z,100818.22
2022-10-21T22:14:59.678Z,100822.00
2022-10-21T22:17:27.338Z,100820.38
2022-10-21T22:19:55.143Z,100823.06
2022-10-21T22:22:22.805Z,100820.38
2022-10-21T22:24:50.593Z,100824.16
2022-10-21T22:27:18.324Z,100818.72
2022-10-21T22:29:45.979Z,100826.03
2022-10-21T22:32:14.990Z,100825.47
2022-10-21T22:34:42.638Z,100820.06
2022-10-21T22:37:10.317Z,100824.66
2022-10-21T22:39:38.049Z,100825.72
2022-10-21T22:42:05.700Z,100822.22
2022-10-21T22:44:33.384Z,100815.97
2022-10-21T22:47:01.059Z,100807.03
2022-10-21T22:49:30.100Z,100810.81
2022-10-21T22:51:57.766Z,100811.88
2022-10-21T22:54:48.157Z,100797.50
2022-10-21T22:57:13.189Z,100802.13
2022-10-21T22:59:40.906Z,100804.00
2022-10-21T23:02:08.540Z,100798.84
2022-10-21T23:04:37.599Z,100799.91
2022-10-21T23:07:05.323Z,100799.09
2022-10-21T23:09:33.045Z,100797.47
2022-10-21T23:12:00.680Z,100792.88
2022-10-21T23:14:28.518Z,100796.91
2022-10-21T23:16:56.180Z,100802.31
2022-10-21T23:19:23.897Z,100796.34
2022-10-21T23:21:52.953Z,100810.97
2022-10-21T23:24:20.647Z,100804.72
2022-10-21T23:26:48.283Z,100813.94
2022-10-21T23:29:16.066Z,100812.59
2022-10-21T23:31:43.749Z,100812.59
2022-10-21T23:34:11.431Z,100810.94
2022-10-21T23:36:39.121Z,100814.72
2022-10-21T23:39:08.227Z,100816.03
2022-10-21T23:41:36.010Z,100821.44
2022-10-21T23:44:03.723Z,100827.13
2022-10-21T23:46:31.487Z,100829.00
2022-10-21T23:48:59.144Z,100828.44
2022-10-21T23:51:26.929Z,100834.94
2022-10-21T23:53:54.587Z,100843.06
2022-10-21T23:56:23.786Z,100843.31
2022-10-21T23:58:51.507Z,100838.16
